Time;durP1;ratioP1;P1;durP2;ratioP2;P2;SDS_P1;SDS_P2;PMS_P1;PMS_P2;Temp;Humidity;BMP_temperature;BMP_pressure;BME280_temperature;BME280_humidity;BME280_pressure;Samples;Min_cycle;Max_cycle;Signal;HPM_P1;HPM_P2
2023/02/12 00:00:06;;;;;;;39.30;27.02;;;10.90;99.90;;;;;;4993207;28;20643;-77
2023/02/12 00:02:40;;;;;;;29.38;20.88;;;11.00;99.90;;;;;;4981464;28;20194;-77
2023/02/12 00:05:06;;;;;;;33.33;22.73;;;10.90;99.90;;;;;;4978951;28;20311;-77
2023/02/12 00:07:35;;;;;;;32.38;23.77;;;10.90;99.90;;;;;;4963422;28;20167;-77
2023/02/12 00:10:01;;;;;;;33.72;22.10;;;10.90;99.90;;;;;;4979728;28;20187;-77
2023/02/12 00:12:26;;;;;;;32.20;22.77;;;10.90;99.90;;;;;;4961056;28;20794;-77
2023/02/12 00:14:52;;;;;;;34.73;24.90;;;10.90;99.90;;;;;;5001932;28;20220;-77
2023/02/12 00:17:18;;;;;;;39.00;24.47;;;10.90;99.90;;;;;;5002298;28;20191;-77
2023/02/12 00:19:45;;;;;;;34.33;23.97;;;10.90;99.90;;;;;;5007095;28;20191;-77
2023/02/12 00:22:11;;;;;;;33.22;21.88;;;10.90;99.90;;;;;;5000596;28;20698;-76
2023/02/12 00:24:36;;;;;;;35.40;24.70;;;10.90;99.90;;;;;;5003253;28;20291;-77
2023/02/12 00:27:02;;;;;;;38.40;27.03;;;10.90;99.90;;;;;;4989387;28;20206;-77
2023/02/12 00:29:30;;;;;;;35.83;25.50;;;10.90;99.90;;;;;;5006133;28;20183;-78
2023/02/12 00:31:56;;;;;;;31.33;21.80;;;10.90;99.90;;;;;;4976157;28;20591;-77
2023/02/12 00:34:25;;;;;;;33.20;22.00;;;10.90;99.90;;;;;;4998371;28;20178;-78
2023/02/12 00:36:51;;;;;;;33.63;23.60;;;10.90;99.90;;;;;;4974014;28;20225;-78
2023/02/12 00:39:20;;;;;;;32.00;23.07;;;10.90;99.90;;;;;;4988127;28;20498;-76
2023/02/12 00:41:46;;;;;;;35.20;26.02;;;10.90;99.90;;;;;;5009608;28;20627;-77
2023/02/12 00:44:12;;;;;;;34.33;23.63;;;10.90;99.90;;;;;;4991881;28;20206;-77
2023/02/12 00:46:37;;;;;;;32.47;22.40;;;10.90;99.90;;;;;;4986563;28;20182;-76
2023/02/12 00:49:03;;;;;;;31.80;23.20;;;10.90;99.90;;;;;;4972166;28;20179;-77
2023/02/12 00:51:29;;;;;;;37.77;26.07;;;10.80;99.90;;;;;;4985182;28;20654;-77
2023/02/12 00:53:54;;;;;;;35.37;24.63;;;10.80;99.90;;;;;;4976529;28;20262;-76
2023/02/12 00:56:20;;;;;;;32.83;22.90;;;10.80;99.90;;;;;;4976092;28;20183;-77
2023/02/12 00:58:48;;;;;;;30.05;21.40;;;10.80;99.90;;;;;;4978747;28;20186;-76
2023/02/12 01:01:13;;;;;;;31.17;21.07;;;10.80;99.90;;;;;;4976849;28;20811;-77
2023/02/12 01:03:39;;;;;;;30.90;22.40;;;10.80;99.90;;;;;;4961704;28;20673;-77
2023/02/12 01:06:05;;;;;;;37.17;25.60;;;10.80;99.90;;;;;;4963532;28;20615;-77
2023/02/12 01:08:31;;;;;;;36.90;26.17;;;10.80;99.90;;;;;;4958160;28;20180;-77
2023/02/12 01:11:02;;;;;;;35.60;26.37;;;10.80;99.90;;;;;;4960158;28;20609;-77
2023/02/12 01:13:29;;;;;;;34.92;24.23;;;10.80;99.90;;;;;;4965695;28;20611;-77
2023/02/12 01:16:22;;;;;;;40.72;24.75;;;10.90;99.90;;;;;;4958799;28;20172;-77
2023/02/12 01:18:50;;;;;;;36.28;25.10;;;10.80;99.90;;;;;;4977157;28;20187;-76
2023/02/12 01:21:42;;;;;;;39.58;26.45;;;10.80;99.90;;;;;;4960869;28;20632;-76
2023/02/12 01:24:08;;;;;;;35.03;23.83;;;10.80;99.90;;;;;;4959562;28;20290;-77
2023/02/12 01:26:34;;;;;;;30.38;22.05;;;10.90;99.90;;;;;;4995537;28;20749;-76
2023/02/12 01:29:03;;;;;;;39.83;23.77;;;10.90;99.90;;;;;;4978348;28;20726;-77
2023/02/12 01:31:32;;;;;;;35.67;24.40;;;10.90;99.90;;;;;;4994723;28;20224;-77
2023/02/12 01:33:59;;;;;;;27.80;20.88;;;10.80;99.90;;;;;;4975458;28;20182;-77
2023/02/12 01:36:27;;;;;;;29.00;20.48;;;10.80;99.90;;;;;;4942472;28;20186;-76
2023/02/12 01:38:53;;;;;;;33.17;22.98;;;10.80;99.90;;;;;;4978519;28;20182;-77
2023/02/12 01:41:22;;;;;;;37.40;24.00;;;10.80;99.90;;;;;;4951824;28;20222;-77
2023/02/12 01:44:27;;;;;;;33.92;23.20;;;10.80;99.90;;;;;;4995592;28;20203;-77
2023/02/12 01:47:02;;;;;;;32.30;21.95;;;10.80;99.90;;;;;;4930767;29;20176;-77
2023/02/12 01:49:44;;;;;;;30.02;21.20;;;10.80;99.90;;;;;;4952238;28;20538;-76
2023/02/12 01:52:20;;;;;;;31.92;22.15;;;10.80;99.90;;;;;;4974700;28;20210;-76
2023/02/12 01:54:48;;;;;;;41.85;24.88;;;10.80;99.90;;;;;;4979018;28;20179;-76
2023/02/12 01:57:15;;;;;;;36.17;25.05;;;10.80;99.90;;;;;;4975171;28;20183;-76
2023/02/12 01:59:43;;;;;;;37.97;26.05;;;10.80;99.90;;;;;;4959561;28;20179;-76
2023/02/12 02:02:09;;;;;;;32.40;22.83;;;10.80;99.90;;;;;;4974583;28;20821;-76
2023/02/12 02:04:58;;;;;;;35.83;24.58;;;10.80;99.90;;;;;;4993286;28;20205;-76
2023/02/12 02:07:23;;;;;;;33.58;24.05;;;10.80;99.90;;;;;;5006946;28;20175;-76
2023/02/12 02:09:50;;;;;;;41.00;26.20;;;10.80;99.90;;;;;;5007589;28;20190;-76
2023/02/12 02:15:02;;;;;;;33.13;23.50;;;10.90;99.90;;;;;;4957876;28;20178;-76
2023/02/12 02:17:45;;;;;;;37.22;25.02;;;10.90;99.90;;;;;;4963668;28;20184;-76
2023/02/12 02:20:36;;;;;;;41.15;26.92;;;10.90;99.90;;;;;;4939154;28;20182;-76
2023/02/12 02:23:39;;;;;;;36.72;25.35;;;10.90;99.90;;;;;;4953913;28;20219;-76
2023/02/12 02:26:21;;;;;;;38.90;27.25;;;10.90;99.90;;;;;;4970957;28;20242;-76
2023/02/12 02:29:29;;;;;;;36.88;26.25;;;10.90;99.90;;;;;;4972504;28;20199;-76
2023/02/12 02:32:03;;;;;;;38.13;25.15;;;10.90;99.90;;;;;;4956209;28;20698;-76
2023/02/12 02:34:48;;;;;;;46.05;28.95;;;10.90;99.90;;;;;;4944031;28;20176;-77
2023/02/12 02:37:25;;;;;;;36.15;24.42;;;10.90;99.90;;;;;;4955370;28;20211;-76
2023/02/12 02:40:07;;;;;;;36.08;25.70;;;10.90;99.90;;;;;;4974315;28;20175;-77
2023/02/12 02:42:37;;;;;;;31.23;22.52;;;10.80;99.90;;;;;;4975730;28;20194;-76
2023/02/12 02:45:17;;;;;;;38.05;25.00;;;10.90;99.90;;;;;;4976809;28;20205;-76
2023/02/12 02:48:17;;;;;;;40.00;28.58;;;10.90;99.90;;;;;;4993503;28;20178;-76
2023/02/12 02:50:50;;;;;;;38.15;24.13;;;10.90;99.90;;;;;;4957898;28;20168;-76
2023/02/12 02:53:27;;;;;;;41.83;26.67;;;10.90;99.90;;;;;;4958215;28;20191;-77
2023/02/12 02:55:55;;;;;;;38.40;25.35;;;10.90;99.90;;;;;;4980047;28;20187;-76
2023/02/12 02:58:26;;;;;;;39.53;27.23;;;10.90;99.90;;;;;;4946130;28;20262;-77
2023/02/12 03:00:52;;;;;;;36.50;26.40;;;10.90;99.90;;;;;;4962697;28;20258;-76
2023/02/12 03:03:25;;;;;;;41.53;26.87;;;10.90;99.90;;;;;;4980327;28;20218;-77
2023/02/12 03:05:55;;;;;;;37.92;25.58;;;10.90;99.90;;;;;;4964732;28;20314;-76
2023/02/12 03:08:53;;;;;;;38.83;26.70;;;10.90;99.90;;;;;;4962749;28;20179;-76
2023/02/12 03:11:25;;;;;;;39.05;26.90;;;10.90;99.90;;;;;;4967699;28;20175;-76
2023/02/12 03:14:01;;;;;;;39.42;26.35;;;10.90;99.90;;;;;;4988935;28;20198;-76
2023/02/12 03:16:40;;;;;;;36.17;24.80;;;10.90;99.90;;;;;;4983005;28;20178;-76
2023/02/12 03:19:13;;;;;;;35.28;25.08;;;10.90;99.90;;;;;;4980398;28;20211;-77
2023/02/12 03:22:00;;;;;;;33.13;24.33;;;10.80;99.90;;;;;;4963049;28;20231;-76
2023/02/12 03:24:38;;;;;;;36.25;23.50;;;10.90;99.90;;;;;;4977508;28;20214;-76
2023/02/12 03:27:07;;;;;;;34.78;25.33;;;10.80;99.90;;;;;;4963842;28;20179;-77
2023/02/12 03:29:33;;;;;;;34.97;24.58;;;10.90;99.90;;;;;;4969190;28;20178;-77
2023/02/12 03:32:11;;;;;;;38.03;25.00;;;10.90;99.90;;;;;;4983569;28;20191;-77
2023/02/12 03:35:01;;;;;;;35.20;24.98;;;10.90;99.90;;;;;;5000315;28;20579;-77
2023/02/12 03:37:35;;;;;;;37.95;26.67;;;10.90;99.90;;;;;;4972236;28;20591;-76
2023/02/12 03:40:26;;;;;;;33.20;22.02;;;10.80;99.90;;;;;;4961626;28;20198;-76
2023/02/12 03:43:07;;;;;;;30.50;21.55;;;10.80;99.90;;;;;;4960356;28;20195;-76
2023/02/12 03:46:10;;;;;;;33.92;24.70;;;10.80;99.90;;;;;;4973604;28;20219;-76
2023/02/12 03:48:44;;;;;;;33.40;22.52;;;10.80;99.90;;;;;;4978947;28;20171;-76
2023/02/12 03:51:45;;;;;;;33.60;24.58;;;10.80;99.90;;;;;;4975547;28;20175;-77
2023/02/12 03:54:15;;;;;;;38.05;24.38;;;10.80;99.90;;;;;;4934333;29;20191;-77
2023/02/12 03:56:55;;;;;;;31.83;22.73;;;10.80;99.90;;;;;;4967736;28;20218;-77
2023/02/12 03:59:23;;;;;;;42.47;26.23;;;10.80;99.90;;;;;;4957857;28;20654;-77
2023/02/12 04:01:52;;;;;;;35.67;25.70;;;10.80;99.90;;;;;;4976120;28;20207;-77
2023/02/12 04:04:18;;;;;;;31.13;22.92;;;10.80;99.90;;;;;;4958928;28;20683;-77
2023/02/12 04:06:46;;;;;;;39.35;24.90;;;10.80;99.90;;;;;;4980829;28;20171;-77
2023/02/12 04:09:13;;;;;;;35.83;26.30;;;10.80;99.90;;;;;;4959823;28;20194;-77
2023/02/12 04:11:58;;;;;;;32.90;22.75;;;10.70;99.90;;;;;;4959799;28;20199;-77
2023/02/12 04:14:54;;;;;;;34.72;23.15;;;10.70;99.90;;;;;;4966641;28;20533;-76
2023/02/12 04:17:20;;;;;;;31.70;21.70;;;10.60;99.90;;;;;;4975920;28;20184;-77
2023/02/12 04:20:04;;;;;;;37.25;24.45;;;10.70;99.90;;;;;;4966379;28;20171;-77
2023/02/12 04:22:57;;;;;;;38.88;24.48;;;10.70;99.90;;;;;;4980766;28;20234;-77
2023/02/12 04:25:26;;;;;;;33.13;23.10;;;10.70;99.90;;;;;;4995085;28;20209;-76
2023/02/12 04:28:01;;;;;;;34.80;23.80;;;10.70;99.90;;;;;;4948490;28;20168;-77
2023/02/12 04:30:41;;;;;;;33.92;22.98;;;10.70;99.90;;;;;;4944309;28;20182;-77
2023/02/12 04:33:11;;;;;;;31.50;23.27;;;10.70;99.90;;;;;;4961865;28;20559;-77
2023/02/12 04:35:53;;;;;;;36.60;24.58;;;10.70;99.90;;;;;;4984106;28;20180;-77
2023/02/12 04:38:29;;;;;;;31.10;22.05;;;10.70;99.90;;;;;;4944625;28;20186;-77
2023/02/12 04:40:55;;;;;;;30.40;23.00;;;10.70;99.90;;;;;;4963857;28;20615;-77
2023/02/12 04:43:33;;;;;;;33.75;22.98;;;10.80;99.90;;;;;;4976027;28;20196;-77
2023/02/12 04:46:00;;;;;;;32.85;24.83;;;10.80;99.90;;;;;;4947407;28;20184;-77
2023/02/12 04:48:26;;;;;;;32.20;22.80;;;10.80;99.90;;;;;;4960022;28;20168;-77
2023/02/12 04:50:52;;;;;;;35.53;23.73;;;10.80;99.90;;;;;;4998654;28;20633;-77
2023/02/12 04:53:18;;;;;;;33.73;24.63;;;10.80;99.90;;;;;;5006258;28;20630;-77
2023/02/12 04:55:43;;;;;;;38.10;25.40;;;10.80;99.90;;;;;;4993041;28;20179;-77
2023/02/12 04:58:09;;;;;;;37.37;25.20;;;10.80;99.90;;;;;;4999080;28;20312;-77
2023/02/12 05:00:35;;;;;;;33.33;23.03;;;10.80;99.90;;;;;;5009732;28;20530;-77
2023/02/12 05:03:01;;;;;;;32.30;21.50;;;10.80;99.90;;;;;;5005098;28;20210;-77
2023/02/12 05:05:27;;;;;;;28.77;19.40;;;10.80;99.90;;;;;;4993916;28;20214;-78
2023/02/12 05:07:53;;;;;;;31.70;21.93;;;10.80;99.90;;;;;;4992988;28;20515;-78
2023/02/12 05:10:18;;;;;;;31.30;21.87;;;10.80;99.90;;;;;;4994893;28;20185;-78
2023/02/12 05:12:44;;;;;;;38.27;25.40;;;10.80;99.90;;;;;;4974950;28;20667;-78
2023/02/12 05:15:10;;;;;;;33.57;22.33;;;10.70;99.90;;;;;;4992186;28;20274;-78
2023/02/12 05:17:37;;;;;;;34.77;23.27;;;10.80;99.90;;;;;;4992410;28;20175;-78
2023/02/12 05:20:03;;;;;;;30.00;22.48;;;10.80;99.90;;;;;;4975604;28;20999;-78
2023/02/12 05:22:29;;;;;;;32.13;23.40;;;10.80;99.90;;;;;;5007127;28;20673;-78
2023/02/12 05:24:55;;;;;;;34.10;22.27;;;10.80;99.90;;;;;;5003396;28;20294;-78
2023/02/12 05:27:21;;;;;;;36.77;23.10;;;10.80;99.90;;;;;;4975623;28;20587;-78
2023/02/12 05:29:46;;;;;;;40.33;24.90;;;10.70;99.90;;;;;;4958760;28;20174;-79
2023/02/12 05:32:12;;;;;;;36.93;25.77;;;10.70;99.90;;;;;;4956376;28;20624;-78
2023/02/12 05:34:38;;;;;;;33.20;23.17;;;10.70;99.90;;;;;;4939829;28;20175;-78
2023/02/12 05:37:04;;;;;;;32.07;22.93;;;10.70;99.90;;;;;;4990721;28;20193;-78
2023/02/12 05:39:29;;;;;;;31.10;19.80;;;10.80;99.90;;;;;;4992086;28;20175;-77
2023/02/12 05:41:55;;;;;;;25.93;19.87;;;10.70;99.90;;;;;;4974643;28;20205;-78
2023/02/12 05:44:21;;;;;;;27.10;18.53;;;10.70;99.90;;;;;;4974410;28;20206;-77
2023/02/12 05:46:47;;;;;;;26.10;17.83;;;10.70;99.90;;;;;;4991999;28;20170;-79
2023/02/12 05:49:12;;;;;;;35.37;24.27;;;10.70;99.90;;;;;;4974672;28;20233;-79
2023/02/12 05:51:41;;;;;;;37.10;25.30;;;10.70;99.90;;;;;;4974601;28;20924;-79
2023/02/12 05:54:07;;;;;;;32.58;24.00;;;10.70;99.90;;;;;;4991988;28;20175;-77
2023/02/12 05:56:41;;;;;;;36.17;26.27;;;10.70;99.90;;;;;;4990775;28;20310;-77
2023/02/12 05:59:12;;;;;;;38.58;24.70;;;10.70;99.90;;;;;;4957240;28;20637;-78
2023/02/12 06:01:40;;;;;;;35.95;26.17;;;10.70;99.90;;;;;;4972347;28;20175;-78
2023/02/12 06:04:16;;;;;;;34.17;24.65;;;10.70;99.90;;;;;;4955246;28;20204;-78
2023/02/12 06:06:42;;;;;;;33.17;23.77;;;10.70;99.90;;;;;;4954607;28;20175;-78
2023/02/12 06:09:09;;;;;;;32.95;23.33;;;10.70;99.90;;;;;;4985860;28;20178;-78
2023/02/12 06:11:35;;;;;;;36.55;24.65;;;10.70;99.90;;;;;;4987305;28;20262;-78
2023/02/12 06:14:03;;;;;;;33.55;23.95;;;10.70;99.90;;;;;;4984029;28;20185;-77
2023/02/12 06:16:30;;;;;;;33.95;23.55;;;10.80;99.90;;;;;;4994331;28;20269;-78
2023/02/12 06:18:56;;;;;;;31.48;23.10;;;10.80;99.90;;;;;;5006872;28;20178;-78
2023/02/12 06:21:24;;;;;;;32.53;24.50;;;10.80;99.90;;;;;;5002739;28;20181;-78
2023/02/12 06:23:51;;;;;;;37.20;25.30;;;10.80;99.90;;;;;;5001012;28;21208;-78
2023/02/12 06:26:16;;;;;;;34.20;22.42;;;10.80;99.90;;;;;;5000381;28;20630;-77
2023/02/12 06:28:43;;;;;;;36.23;24.27;;;10.80;99.90;;;;;;4989197;28;20336;-78
2023/02/12 06:31:36;;;;;;;41.33;24.85;;;10.80;99.90;;;;;;4973876;28;20171;-78
2023/02/12 06:34:07;;;;;;;32.65;22.83;;;10.80;99.90;;;;;;4972045;28;20197;-78
2023/02/12 06:36:35;;;;;;;38.17;25.27;;;10.80;99.90;;;;;;4991208;28;20170;-77
2023/02/12 06:39:02;;;;;;;39.38;26.98;;;10.80;99.90;;;;;;4985001;28;20186;-79
2023/02/12 06:41:28;;;;;;;35.03;24.88;;;10.80;99.90;;;;;;4974024;28;20176;-79
2023/02/12 06:43:54;;;;;;;33.20;23.75;;;10.80;99.90;;;;;;4952904;28;20199;-77
2023/02/12 06:46:20;;;;;;;40.53;25.17;;;10.80;99.90;;;;;;4994251;28;20183;-78
2023/02/12 06:48:45;;;;;;;29.75;23.42;;;10.80;99.90;;;;;;4979666;28;20530;-78
2023/02/12 06:51:15;;;;;;;37.07;25.70;;;10.80;99.90;;;;;;4981627;28;20179;-77
2023/02/12 06:53:41;;;;;;;34.60;23.45;;;10.80;99.90;;;;;;4976288;28;20625;-78
2023/02/12 06:56:10;;;;;;;37.70;26.60;;;10.80;99.90;;;;;;5002001;28;20175;-77
2023/02/12 06:58:37;;;;;;;37.10;26.73;;;10.80;99.90;;;;;;5009008;28;20232;-78
2023/02/12 07:01:16;;;;;;;39.30;24.75;;;10.80;99.90;;;;;;4981651;28;20190;-77
2023/02/12 07:03:52;;;;;;;40.72;25.85;;;10.80;99.90;;;;;;4954767;28;20275;-78
2023/02/12 07:06:19;;;;;;;37.10;25.05;;;10.80;99.90;;;;;;5004642;28;20585;-78
2023/02/12 07:08:44;;;;;;;38.30;23.95;;;10.80;99.90;;;;;;5008066;28;20543;-77
2023/02/12 07:11:10;;;;;;;41.20;27.70;;;10.80;99.90;;;;;;5008464;28;20178;-78
2023/02/12 07:13:36;;;;;;;40.93;25.60;;;10.80;99.90;;;;;;5010499;28;20237;-78
2023/02/12 07:16:07;;;;;;;37.20;25.03;;;10.80;99.90;;;;;;5006867;28;20608;-78
2023/02/12 07:18:34;;;;;;;36.35;25.10;;;10.80;99.90;;;;;;5005068;28;20186;-77
2023/02/12 07:21:00;;;;;;;40.20;24.88;;;10.80;99.90;;;;;;5003472;28;20670;-77
2023/02/12 07:23:26;;;;;;;36.10;25.38;;;10.80;99.90;;;;;;4988735;28;20230;-78
2023/02/12 07:26:00;;;;;;;37.87;25.97;;;10.80;99.90;;;;;;5014293;28;20237;-78
2023/02/12 07:28:26;;;;;;;33.63;24.55;;;10.80;99.90;;;;;;4981365;28;20175;-78
2023/02/12 07:30:53;;;;;;;34.95;23.45;;;10.90;99.90;;;;;;4994924;28;20198;-78
2023/02/12 07:33:19;;;;;;;36.50;27.30;;;10.90;99.90;;;;;;4995161;28;20679;-77
2023/02/12 07:35:45;;;;;;;37.97;25.20;;;10.90;99.90;;;;;;4985072;28;20590;-78
2023/02/12 07:38:11;;;;;;;37.50;24.73;;;10.90;99.90;;;;;;4976624;28;20175;-77
2023/02/12 07:40:37;;;;;;;33.38;25.33;;;10.90;99.90;;;;;;5002732;28;20171;-77
2023/02/12 07:43:03;;;;;;;34.72;23.77;;;11.00;99.90;;;;;;5013869;28;20198;-78
2023/02/12 07:45:34;;;;;;;36.85;25.73;;;11.00;99.90;;;;;;4981132;28;20670;-78
2023/02/12 07:48:00;;;;;;;32.40;21.23;;;11.00;99.90;;;;;;5011458;28;20250;-79
2023/02/12 07:50:26;;;;;;;30.38;21.80;;;11.00;99.90;;;;;;4990079;28;20167;-78
2023/02/12 07:52:52;;;;;;;32.53;25.80;;;11.10;99.90;;;;;;4969357;28;20194;-79
2023/02/12 07:55:19;;;;;;;32.00;23.85;;;11.10;99.90;;;;;;4974444;28;20175;-79
2023/02/12 07:57:45;;;;;;;27.50;20.40;;;11.00;99.90;;;;;;4968069;28;20183;-78
2023/02/12 08:00:11;;;;;;;26.17;21.87;;;11.00;99.90;;;;;;4968754;28;20595;-78
2023/02/12 08:02:39;;;;;;;28.00;21.50;;;11.00;99.90;;;;;;4970838;28;20523;-78
2023/02/12 08:05:06;;;;;;;32.00;22.57;;;11.00;99.90;;;;;;4975595;28;20202;-78
2023/02/12 08:07:31;;;;;;;27.70;21.85;;;10.90;99.90;;;;;;4992529;28;20179;-79
2023/02/12 08:09:57;;;;;;;34.30;23.57;;;10.90;99.90;;;;;;4984712;28;20174;-79
2023/02/12 08:12:23;;;;;;;27.93;20.60;;;10.80;99.90;;;;;;4993384;28;20191;-78
2023/02/12 08:14:48;;;;;;;28.20;22.30;;;10.80;99.90;;;;;;4965387;28;20183;-78
2023/02/12 08:17:14;;;;;;;31.70;23.37;;;10.70;99.90;;;;;;4984129;28;20253;-78
2023/02/12 08:19:40;;;;;;;28.27;20.23;;;10.70;99.90;;;;;;4955060;28;20265;-79
2023/02/12 08:22:06;;;;;;;31.80;23.00;;;10.70;99.90;;;;;;4995407;28;20222;-78
2023/02/12 08:24:31;;;;;;;28.00;22.02;;;10.70;99.90;;;;;;4985725;28;20211;-78
2023/02/12 08:26:57;;;;;;;27.67;21.20;;;10.70;99.90;;;;;;4986060;28;20363;-78
2023/02/12 08:29:29;;;;;;;32.17;24.37;;;10.70;99.90;;;;;;5012205;28;20630;-78
2023/02/12 08:32:00;;;;;;;30.30;22.05;;;10.70;99.90;;;;;;4978109;28;20198;-79
2023/02/12 08:34:32;;;;;;;29.63;20.95;;;10.70;99.90;;;;;;4964170;28;20182;-78
2023/02/12 08:36:58;;;;;;;26.08;21.02;;;10.70;99.90;;;;;;5008698;28;20523;-79
2023/02/12 08:39:26;;;;;;;26.63;19.85;;;10.80;99.90;;;;;;4990088;28;20497;-78
2023/02/12 08:41:56;;;;;;;28.50;21.33;;;10.90;99.90;;;;;;5010828;28;20182;-78
2023/02/12 08:44:23;;;;;;;28.08;21.58;;;10.90;99.90;;;;;;4985902;28;20199;-79
2023/02/12 08:46:51;;;;;;;31.15;21.88;;;11.00;99.90;;;;;;4993296;28;20269;-79
2023/02/12 08:49:20;;;;;;;28.20;21.67;;;11.10;99.90;;;;;;4995484;28;20183;-79
2023/02/12 08:51:49;;;;;;;30.63;21.42;;;11.10;99.90;;;;;;4994694;28;20233;-79
2023/02/12 08:54:18;;;;;;;32.35;23.00;;;11.20;99.90;;;;;;4978492;28;20262;-79
2023/02/12 08:56:46;;;;;;;28.13;20.95;;;11.20;99.90;;;;;;4976560;28;20205;-78
2023/02/12 08:59:13;;;;;;;33.13;24.05;;;11.30;99.90;;;;;;4976037;28;20183;-78
2023/02/12 09:01:40;;;;;;;28.85;22.17;;;11.30;99.90;;;;;;4993433;28;20217;-78
2023/02/12 09:04:09;;;;;;;32.50;23.48;;;11.30;99.90;;;;;;4993944;28;20249;-79
2023/02/12 09:06:35;;;;;;;33.65;24.38;;;11.30;99.90;;;;;;4959691;28;20183;-79
2023/02/12 09:09:02;;;;;;;35.60;24.97;;;11.40;99.90;;;;;;4975751;28;20171;-80
2023/02/12 09:11:31;;;;;;;37.15;26.05;;;11.40;99.90;;;;;;4993625;28;20590;-79
2023/02/12 09:14:00;;;;;;;33.67;24.00;;;11.40;99.90;;;;;;4993500;28;20234;-79
2023/02/12 09:16:28;;;;;;;29.80;24.20;;;11.40;99.90;;;;;;4975053;28;20202;-79
2023/02/12 09:18:57;;;;;;;33.13;25.30;;;11.40;99.90;;;;;;4992984;28;20171;-80
2023/02/12 09:21:22;;;;;;;32.17;25.02;;;11.40;99.90;;;;;;4977542;28;20527;-79
2023/02/12 09:23:50;;;;;;;33.20;23.47;;;11.40;99.90;;;;;;4973832;28;20203;-78
2023/02/12 09:26:19;;;;;;;33.85;24.33;;;11.40;99.90;;;;;;4991857;28;20927;-79
2023/02/12 09:28:46;;;;;;;33.60;24.60;;;11.50;99.90;;;;;;4990630;28;20224;-79
2023/02/12 09:31:15;;;;;;;33.72;25.08;;;11.60;99.90;;;;;;4972922;28;20170;-78
2023/02/12 09:33:41;;;;;;;32.40;24.95;;;11.70;99.90;;;;;;4974592;28;20738;-78
2023/02/12 09:36:12;;;;;;;34.42;24.85;;;11.70;99.90;;;;;;4990966;28;20175;-78
2023/02/12 09:38:39;;;;;;;37.00;25.92;;;11.80;99.90;;;;;;4992171;28;20250;-78
2023/02/12 09:41:29;;;;;;;37.05;25.70;;;11.80;99.90;;;;;;4953459;28;20256;-78
2023/02/12 09:44:20;;;;;;;38.03;24.38;;;11.90;99.90;;;;;;4992064;28;20705;-78
2023/02/12 09:47:11;;;;;;;34.05;24.17;;;12.00;99.90;;;;;;4991932;28;20173;-78
2023/02/12 09:49:43;;;;;;;36.75;24.95;;;12.10;99.90;;;;;;4992101;28;20209;-78
2023/02/12 09:52:17;;;;;;;30.30;23.15;;;12.20;99.90;;;;;;4985608;28;20277;-78
2023/02/12 09:54:44;;;;;;;35.50;25.55;;;12.30;99.90;;;;;;4963766;28;20233;-78
2023/02/12 09:57:30;;;;;;;35.13;25.48;;;12.40;99.90;;;;;;4991006;28;20179;-78
2023/02/12 10:00:27;;;;;;;39.88;27.08;;;12.50;99.90;;;;;;5009750;28;20195;-78
2023/02/12 10:02:54;;;;;;;34.40;25.48;;;12.50;99.90;;;;;;4991737;28;20317;-79
2023/02/12 10:05:43;;;;;;;38.87;29.03;;;12.60;99.90;;;;;;4991458;28;20211;-78
2023/02/12 10:08:09;;;;;;;37.67;26.73;;;12.70;99.90;;;;;;4991985;28;20586;-78
2023/02/12 10:10:59;;;;;;;38.20;26.80;;;12.70;99.90;;;;;;4986703;28;20666;-79
2023/02/12 10:13:44;;;;;;;37.28;26.90;;;12.70;99.90;;;;;;4986638;28;20273;-80
2023/02/12 10:16:34;;;;;;;31.90;24.35;;;12.70;99.90;;;;;;4991281;28;20166;-79
2023/02/12 10:19:17;;;;;;;33.50;24.45;;;12.80;99.90;;;;;;4989986;28;20571;-78
2023/02/12 10:22:06;;;;;;;33.03;26.03;;;12.80;99.90;;;;;;4954057;28;20187;-78
2023/02/12 10:24:31;;;;;;;34.93;26.03;;;12.80;99.90;;;;;;4991901;28;20621;-78
2023/02/12 10:27:02;;;;;;;37.83;26.77;;;12.80;99.90;;;;;;4974164;28;20588;-79
2023/02/12 10:29:34;;;;;;;37.00;27.33;;;12.80;99.90;;;;;;4988297;28;20175;-79
2023/02/12 10:32:10;;;;;;;32.67;25.30;;;12.70;99.90;;;;;;4997666;28;20606;-79
2023/02/12 10:34:40;;;;;;;40.77;28.47;;;12.80;99.90;;;;;;4992108;28;20653;-80
2023/02/12 10:37:24;;;;;;;35.97;26.00;;;12.70;99.90;;;;;;4993205;28;20597;-79
2023/02/12 10:39:57;;;;;;;35.13;26.92;;;12.70;99.90;;;;;;4974499;28;20189;-79
2023/02/12 10:42:45;;;;;;;33.70;22.48;;;12.80;99.90;;;;;;4958716;28;20199;-79
2023/02/12 10:45:20;;;;;;;28.63;21.95;;;12.80;99.90;;;;;;5010386;28;20209;-79
2023/02/12 10:47:50;;;;;;;31.20;23.30;;;12.90;99.90;;;;;;5002514;28;20178;-79
2023/02/12 10:50:23;;;;;;;35.00;24.90;;;12.90;99.90;;;;;;5020104;28;20570;-79
2023/02/12 10:53:02;;;;;;;29.83;23.40;;;13.00;99.90;;;;;;5018567;28;20633;-79
2023/02/12 10:55:33;;;;;;;28.93;21.83;;;13.00;99.90;;;;;;5018685;28;20581;-79
2023/02/12 10:58:01;;;;;;;33.93;25.07;;;13.10;99.90;;;;;;5008849;28;20621;-79
2023/02/12 11:00:36;;;;;;;29.17;21.63;;;13.20;99.90;;;;;;4998756;28;20593;-77
2023/02/12 11:03:22;;;;;;;28.67;20.77;;;13.30;99.90;;;;;;5008413;28;20609;-80
2023/02/12 11:05:48;;;;;;;28.63;22.10;;;13.30;99.90;;;;;;5011791;28;20622;-77
2023/02/12 11:08:32;;;;;;;30.47;24.13;;;13.40;99.90;;;;;;4983196;28;20621;-79
2023/02/12 11:11:15;;;;;;;33.67;23.57;;;13.30;99.90;;;;;;5006390;28;20689;-78
2023/02/12 11:13:47;;;;;;;29.70;23.77;;;13.40;99.90;;;;;;5000003;28;20617;-80
2023/02/12 11:16:16;;;;;;;28.10;21.13;;;13.40;99.90;;;;;;4978108;28;20577;-79
2023/02/12 11:18:42;;;;;;;29.53;22.07;;;13.50;99.90;;;;;;4994556;28;20597;-77
2023/02/12 11:21:10;;;;;;;27.60;21.53;;;13.50;99.90;;;;;;4993555;28;20612;-78
2023/02/12 11:23:39;;;;;;;28.90;22.80;;;13.70;99.90;;;;;;4993844;28;20621;-78
2023/02/12 11:26:18;;;;;;;33.97;21.87;;;13.70;99.90;;;;;;4992633;28;20641;-78
2023/02/12 11:28:57;;;;;;;28.30;20.87;;;13.80;99.90;;;;;;4976681;28;20577;-78
2023/02/12 11:31:35;;;;;;;26.90;21.07;;;13.90;99.90;;;;;;4975843;28;20589;-78
2023/02/12 11:34:16;;;;;;;28.47;21.33;;;14.10;99.90;;;;;;4976355;28;20566;-78
2023/02/12 11:36:50;;;;;;;28.23;21.27;;;14.20;99.90;;;;;;4975955;28;20570;-78
2023/02/12 11:39:25;;;;;;;29.80;21.63;;;14.30;99.90;;;;;;4992420;28;20589;-78
2023/02/12 11:41:57;;;;;;;27.37;21.17;;;14.30;99.90;;;;;;4994301;28;20581;-78
2023/02/12 11:44:37;;;;;;;26.87;20.40;;;14.40;99.90;;;;;;4977252;28;20637;-78
2023/02/12 11:47:28;;;;;;;24.20;20.87;;;14.50;99.90;;;;;;4992951;28;20676;-78
2023/02/12 11:49:55;;;;;;;24.53;19.07;;;14.50;99.90;;;;;;4981681;28;21150;-78
2023/02/12 11:52:27;;;;;;;25.40;19.57;;;14.50;99.90;;;;;;4977547;28;20645;-78
2023/02/12 11:54:57;;;;;;;25.00;20.63;;;14.50;99.90;;;;;;4993720;28;20578;-78
2023/02/12 11:57:49;;;;;;;23.60;19.50;;;14.50;99.90;;;;;;4993518;28;20941;-78
2023/02/12 12:00:27;;;;;;;24.50;19.13;;;14.50;99.90;;;;;;4976852;28;20626;-77
2023/02/12 12:03:36;;;;;;;21.80;16.97;;;14.60;99.90;;;;;;4994300;28;20642;-78
2023/02/12 12:06:13;;;;;;;20.70;16.83;;;14.60;99.90;;;;;;4942359;28;21097;-78
2023/02/12 12:09:08;;;;;;;27.07;19.00;;;14.70;99.90;;;;;;4976565;28;20594;-78
2023/02/12 12:11:37;;;;;;;23.33;16.57;;;14.70;99.90;;;;;;4963773;28;20698;-77
2023/02/12 12:14:23;;;;;;;23.13;18.70;;;14.70;99.90;;;;;;4993886;28;20563;-78
2023/02/12 12:20:03;;;;;;;22.00;16.60;;;14.80;99.90;;;;;;4993983;28;20582;-78
2023/02/12 12:23:00;;;;;;;21.50;16.07;;;14.90;99.90;;;;;;4993658;28;20728;-78
2023/02/12 12:25:35;;;;;;;17.97;14.17;;;14.90;99.90;;;;;;4975848;28;20653;-78
2023/02/12 12:28:28;;;;;;;17.90;15.70;;;15.00;99.90;;;;;;4979698;28;20586;-78
2023/02/12 12:31:00;;;;;;;19.70;15.10;;;15.00;99.90;;;;;;4976125;28;21146;-77
2023/02/12 12:33:48;;;;;;;18.57;14.40;;;15.10;99.90;;;;;;4993711;28;20614;-78
2023/02/12 12:36:35;;;;;;;18.20;14.37;;;15.10;99.90;;;;;;4993001;28;20612;-78
2023/02/12 12:39:10;;;;;;;16.57;13.40;;;15.10;99.90;;;;;;4993736;28;20585;-78
2023/02/12 12:41:54;;;;;;;20.73;13.97;;;15.10;99.90;;;;;;4993048;28;20585;-78
2023/02/12 12:44:23;;;;;;;20.00;15.03;;;15.10;99.90;;;;;;4975857;28;20630;-78
2023/02/12 12:47:16;;;;;;;16.97;12.90;;;15.10;99.90;;;;;;4992871;28;20570;-78
2023/02/12 12:50:09;;;;;;;19.83;14.17;;;15.10;99.90;;;;;;4976419;28;20597;-77
2023/02/12 12:53:14;;;;;;;15.47;11.23;;;15.20;99.90;;;;;;4992920;28;21167;-79
2023/02/12 12:56:21;;;;;;;15.17;11.30;;;15.20;99.90;;;;;;4992975;28;20931;-80
2023/02/12 12:58:56;;;;;;;15.00;12.40;;;15.20;99.90;;;;;;4962874;28;20994;-77
2023/02/12 13:01:52;;;;;;;17.97;12.60;;;15.30;99.90;;;;;;4975414;28;20628;-78